sensor_id;sensor_type;location;lat;lon;timestamp;temperature;humidity
48666;DHT22;34452;50.796;4.994;2022-07-04T00:00:53;14.70;99.90
48666;DHT22;34452;50.796;4.994;2022-07-04T00:03:19;14.60;99.90
48666;DHT22;34452;50.796;4.994;2022-07-04T00:05:45;14.50;99.90
48666;DHT22;34452;50.796;4.994;2022-07-04T00:08:12;14.40;99.90
48666;DHT22;34452;50.796;4.994;2022-07-04T00:10:37;14.30;99.90
48666;DHT22;34452;50.796;4.994;2022-07-04T00:13:03;14.30;99.90
48666;DHT22;34452;50.796;4.994;2022-07-04T00:15:29;14.20;99.90
48666;DHT22;34452;50.796;4.994;2022-07-04T00:17:55;14.30;99.90
48666;DHT22;34452;50.796;4.994;2022-07-04T00:20:20;14.30;99.90
48666;DHT22;34452;50.796;4.994;2022-07-04T00:22:46;14.30;99.90
48666;DHT22;34452;50.796;4.994;2022-07-04T00:25:12;14.30;99.90
48666;DHT22;34452;50.796;4.994;2022-07-04T00:27:38;14.20;99.90
48666;DHT22;34452;50.796;4.994;2022-07-04T00:30:04;14.20;99.90
48666;DHT22;34452;50.796;4.994;2022-07-04T00:32:30;14.10;99.90
48666;DHT22;34452;50.796;4.994;2022-07-04T00:34:56;14.10;99.90
48666;DHT22;34452;50.796;4.994;2022-07-04T00:37:22;14.10;99.90
48666;DHT22;34452;50.796;4.994;2022-07-04T00:39:47;14.10;99.90
48666;DHT22;34452;50.796;4.994;2022-07-04T00:42:13;14.10;99.90
48666;DHT22;34452;50.796;4.994;2022-07-04T00:44:39;14.10;99.90
48666;DHT22;34452;50.796;4.994;2022-07-04T00:47:06;14.10;99.90
48666;DHT22;34452;50.796;4.994;2022-07-04T00:49:32;14.10;99.90
48666;DHT22;34452;50.796;4.994;2022-07-04T00:51:58;14.10;99.90
48666;DHT22;34452;50.796;4.994;2022-07-04T00:54:28;14.10;99.90
48666;DHT22;34452;50.796;4.994;2022-07-04T00:56:55;14.10;99.90
48666;DHT22;34452;50.796;4.994;2022-07-04T00:59:21;14.00;99.90
48666;DHT22;34452;50.796;4.994;2022-07-04T01:01:48;14.00;99.90
48666;DHT22;34452;50.796;4.994;2022-07-04T01:04:14;14.00;99.90
48666;DHT22;34452;50.796;4.994;2022-07-04T01:06:40;14.00;99.90
48666;DHT22;34452;50.796;4.994;2022-07-04T01:09:06;13.90;99.90
48666;DHT22;34452;50.796;4.994;2022-07-04T01:11:32;13.80;99.90
48666;DHT22;34452;50.796;4.994;2022-07-04T01:13:58;13.80;99.90
48666;DHT22;34452;50.796;4.994;2022-07-04T01:16:26;13.70;99.90
48666;DHT22;34452;50.796;4.994;2022-07-04T01:18:52;13.70;99.90
48666;DHT22;34452;50.796;4.994;2022-07-04T01:21:19;13.60;99.90
48666;DHT22;34452;50.796;4.994;2022-07-04T01:23:44;13.60;99.90
48666;DHT22;34452;50.796;4.994;2022-07-04T01:26:10;13.50;99.90
48666;DHT22;34452;50.796;4.994;2022-07-04T01:28:37;13.40;99.90
48666;DHT22;34452;50.796;4.994;2022-07-04T01:31:04;13.40;99.90
48666;DHT22;34452;50.796;4.994;2022-07-04T01:33:30;13.30;99.90
48666;DHT22;34452;50.796;4.994;2022-07-04T01:35:55;13.40;99.90
48666;DHT22;34452;50.796;4.994;2022-07-04T01:38:21;13.30;99.90
48666;DHT22;34452;50.796;4.994;2022-07-04T01:40:47;13.20;99.90
48666;DHT22;34452;50.796;4.994;2022-07-04T01:43:13;13.10;99.90
48666;DHT22;34452;50.796;4.994;2022-07-04T01:45:39;13.10;99.90
48666;DHT22;34452;50.796;4.994;2022-07-04T01:48:07;13.10;99.90
48666;DHT22;34452;50.796;4.994;2022-07-04T01:50:33;13.10;99.90
48666;DHT22;34452;50.796;4.994;2022-07-04T01:52:59;13.10;99.90
48666;DHT22;34452;50.796;4.994;2022-07-04T01:55:25;13.10;99.90
48666;DHT22;34452;50.796;4.994;2022-07-04T01:57:51;13.10;99.90
48666;DHT22;34452;50.796;4.994;2022-07-04T02:00:17;13.10;99.90
48666;DHT22;34452;50.796;4.994;2022-07-04T02:03:01;13.10;99.90
48666;DHT22;34452;50.796;4.994;2022-07-04T02:05:27;13.20;99.90
48666;DHT22;34452;50.796;4.994;2022-07-04T02:07:53;13.20;99.90
48666;DHT22;34452;50.796;4.994;2022-07-04T02:10:19;13.20;99.90
48666;DHT22;34452;50.796;4.994;2022-07-04T02:12:44;13.30;99.90
48666;DHT22;34452;50.796;4.994;2022-07-04T02:15:57;13.30;99.90
48666;DHT22;34452;50.796;4.994;2022-07-04T02:18:23;13.20;99.90
48666;DHT22;34452;50.796;4.994;2022-07-04T02:20:49;13.10;99.90
48666;DHT22;34452;50.796;4.994;2022-07-04T02:23:15;13.00;99.90
48666;DHT22;34452;50.796;4.994;2022-07-04T02:25:40;12.90;99.90
48666;DHT22;34452;50.796;4.994;2022-07-04T02:28:06;12.90;99.90
48666;DHT22;34452;50.796;4.994;2022-07-04T02:30:32;12.90;99.90
48666;DHT22;34452;50.796;4.994;2022-07-04T02:32:57;12.90;99.90
48666;DHT22;34452;50.796;4.994;2022-07-04T02:35:23;12.90;99.90
48666;DHT22;34452;50.796;4.994;2022-07-04T02:37:49;12.90;99.90
48666;DHT22;34452;50.796;4.994;2022-07-04T02:40:15;12.80;99.90
48666;DHT22;34452;50.796;4.994;2022-07-04T02:42:40;12.80;99.90
48666;DHT22;34452;50.796;4.994;2022-07-04T02:45:07;12.70;99.90
48666;DHT22;34452;50.796;4.994;2022-07-04T02:47:33;12.60;99.90
48666;DHT22;34452;50.796;4.994;2022-07-04T02:50:00;12.60;99.90
48666;DHT22;34452;50.796;4.994;2022-07-04T02:52:27;12.60;99.90
48666;DHT22;34452;50.796;4.994;2022-07-04T02:54:53;12.70;99.90
48666;DHT22;34452;50.796;4.994;2022-07-04T02:57:19;12.70;99.90
48666;DHT22;34452;50.796;4.994;2022-07-04T02:59:45;12.80;99.90
48666;DHT22;34452;50.796;4.994;2022-07-04T03:02:11;12.80;99.90
48666;DHT22;34452;50.796;4.994;2022-07-04T03:04:37;12.80;99.90
48666;DHT22;34452;50.796;4.994;2022-07-04T03:07:06;12.80;99.90
48666;DHT22;34452;50.796;4.994;2022-07-04T03:09:32;12.80;99.90
48666;DHT22;34452;50.796;4.994;2022-07-04T03:11:58;12.70;99.90
48666;DHT22;34452;50.796;4.994;2022-07-04T03:14:23;12.70;99.90
48666;DHT22;34452;50.796;4.994;2022-07-04T03:16:49;12.60;99.90
48666;DHT22;34452;50.796;4.994;2022-07-04T03:19:15;12.50;99.90
48666;DHT22;34452;50.796;4.994;2022-07-04T03:21:43;12.40;99.90
48666;DHT22;34452;50.796;4.994;2022-07-04T03:24:08;12.50;99.90
48666;DHT22;34452;50.796;4.994;2022-07-04T03:26:35;12.50;99.90
48666;DHT22;34452;50.796;4.994;2022-07-04T03:29:01;12.50;99.90
48666;DHT22;34452;50.796;4.994;2022-07-04T03:31:28;12.50;99.90
48666;DHT22;34452;50.796;4.994;2022-07-04T03:33:54;12.50;99.90
48666;DHT22;34452;50.796;4.994;2022-07-04T03:36:21;12.40;99.90
48666;DHT22;34452;50.796;4.994;2022-07-04T03:38:46;12.40;99.90
48666;DHT22;34452;50.796;4.994;2022-07-04T03:41:13;12.40;99.90
48666;DHT22;34452;50.796;4.994;2022-07-04T03:43:38;12.40;99.90
48666;DHT22;34452;50.796;4.994;2022-07-04T03:46:04;12.40;99.90
48666;DHT22;34452;50.796;4.994;2022-07-04T03:48:30;12.40;99.90
48666;DHT22;34452;50.796;4.994;2022-07-04T03:50:56;12.40;99.90
48666;DHT22;34452;50.796;4.994;2022-07-04T03:53:22;12.40;99.90
48666;DHT22;34452;50.796;4.994;2022-07-04T03:55:48;12.40;99.90
48666;DHT22;34452;50.796;4.994;2022-07-04T03:58:14;12.30;99.90
48666;DHT22;34452;50.796;4.994;2022-07-04T04:00:40;12.30;99.90
48666;DHT22;34452;50.796;4.994;2022-07-04T04:03:08;12.20;99.90
48666;DHT22;34452;50.796;4.994;2022-07-04T04:05:54;12.20;99.90
48666;DHT22;34452;50.796;4.994;2022-07-04T04:08:20;12.20;99.90
48666;DHT22;34452;50.796;4.994;2022-07-04T04:10:46;12.20;99.90
48666;DHT22;34452;50.796;4.994;2022-07-04T04:13:12;12.30;99.90
48666;DHT22;34452;50.796;4.994;2022-07-04T04:15:37;12.40;99.90
48666;DHT22;34452;50.796;4.994;2022-07-04T04:18:03;12.50;99.90
48666;DHT22;34452;50.796;4.994;2022-07-04T04:20:29;12.50;99.90
48666;DHT22;34452;50.796;4.994;2022-07-04T04:22:54;12.60;99.90
48666;DHT22;34452;50.796;4.994;2022-07-04T04:25:20;12.70;99.90
48666;DHT22;34452;50.796;4.994;2022-07-04T04:27:46;12.70;99.90
48666;DHT22;34452;50.796;4.994;2022-07-04T04:30:12;12.80;99.90
48666;DHT22;34452;50.796;4.994;2022-07-04T04:32:38;12.80;99.90
48666;DHT22;34452;50.796;4.994;2022-07-04T04:35:04;12.90;99.90
48666;DHT22;34452;50.796;4.994;2022-07-04T04:37:30;13.00;99.90
48666;DHT22;34452;50.796;4.994;2022-07-04T04:39:55;13.00;99.90
48666;DHT22;34452;50.796;4.994;2022-07-04T04:42:21;13.00;99.90
48666;DHT22;34452;50.796;4.994;2022-07-04T04:44:47;13.10;99.90
48666;DHT22;34452;50.796;4.994;2022-07-04T04:47:13;13.10;99.90
48666;DHT22;34452;50.796;4.994;2022-07-04T04:49:39;13.10;99.90
48666;DHT22;34452;50.796;4.994;2022-07-04T04:52:04;13.20;99.90
48666;DHT22;34452;50.796;4.994;2022-07-04T04:54:32;13.20;99.90
48666;DHT22;34452;50.796;4.994;2022-07-04T04:56:58;13.30;99.90
48666;DHT22;34452;50.796;4.994;2022-07-04T04:59:24;13.40;99.90
48666;DHT22;34452;50.796;4.994;2022-07-04T05:01:49;13.50;99.90
48666;DHT22;34452;50.796;4.994;2022-07-04T05:04:15;13.60;99.90
48666;DHT22;34452;50.796;4.994;2022-07-04T05:06:41;13.80;99.90
48666;DHT22;34452;50.796;4.994;2022-07-04T05:09:07;13.80;99.90
48666;DHT22;34452;50.796;4.994;2022-07-04T05:11:32;13.90;99.90
48666;DHT22;34452;50.796;4.994;2022-07-04T05:13:58;13.90;99.90
48666;DHT22;34452;50.796;4.994;2022-07-04T05:16:24;14.00;99.90
48666;DHT22;34452;50.796;4.994;2022-07-04T05:18:50;14.10;99.90
48666;DHT22;34452;50.796;4.994;2022-07-04T05:21:15;14.10;99.90
48666;DHT22;34452;50.796;4.994;2022-07-04T05:23:41;14.20;99.90
48666;DHT22;34452;50.796;4.994;2022-07-04T05:26:07;14.30;99.90
48666;DHT22;34452;50.796;4.994;2022-07-04T05:28:33;14.30;99.90
48666;DHT22;34452;50.796;4.994;2022-07-04T05:30:58;14.40;99.90
48666;DHT22;34452;50.796;4.994;2022-07-04T05:33:24;14.50;99.90
48666;DHT22;34452;50.796;4.994;2022-07-04T05:35:50;14.60;99.90
48666;DHT22;34452;50.796;4.994;2022-07-04T05:38:15;14.60;99.90
48666;DHT22;34452;50.796;4.994;2022-07-04T05:40:41;14.70;99.90
48666;DHT22;34452;50.796;4.994;2022-07-04T05:43:07;14.70;99.90
48666;DHT22;34452;50.796;4.994;2022-07-04T05:45:32;14.70;99.90
48666;DHT22;34452;50.796;4.994;2022-07-04T05:47:58;14.80;99.90
48666;DHT22;34452;50.796;4.994;2022-07-04T05:50:24;14.90;99.90
48666;DHT22;34452;50.796;4.994;2022-07-04T05:52:50;14.90;99.90
48666;DHT22;34452;50.796;4.994;2022-07-04T05:55:15;15.00;99.90
48666;DHT22;34452;50.796;4.994;2022-07-04T05:57:41;15.10;99.90
48666;DHT22;34452;50.796;4.994;2022-07-04T06:00:07;15.20;99.90
48666;DHT22;34452;50.796;4.994;2022-07-04T06:02:35;15.30;99.90
48666;DHT22;34452;50.796;4.994;2022-07-04T06:05:01;15.40;99.90
48666;DHT22;34452;50.796;4.994;2022-07-04T06:07:26;15.50;99.90
48666;DHT22;34452;50.796;4.994;2022-07-04T06:09:52;15.50;99.90
48666;DHT22;34452;50.796;4.994;2022-07-04T06:12:18;15.60;99.90
48666;DHT22;34452;50.796;4.994;2022-07-04T06:14:43;15.70;99.90
48666;DHT22;34452;50.796;4.994;2022-07-04T06:17:09;15.80;99.90
48666;DHT22;34452;50.796;4.994;2022-07-04T06:19:35;15.90;99.90
48666;DHT22;34452;50.796;4.994;2022-07-04T06:22:01;16.00;99.90
48666;DHT22;34452;50.796;4.994;2022-07-04T06:24:26;16.00;99.90
48666;DHT22;34452;50.796;4.994;2022-07-04T06:26:52;16.10;99.90
48666;DHT22;34452;50.796;4.994;2022-07-04T06:29:18;16.10;99.90
48666;DHT22;34452;50.796;4.994;2022-07-04T06:31:43;16.20;99.90
48666;DHT22;34452;50.796;4.994;2022-07-04T06:34:09;16.20;99.90
48666;DHT22;34452;50.796;4.994;2022-07-04T06:36:53;16.30;99.90
48666;DHT22;34452;50.796;4.994;2022-07-04T06:39:19;16.40;99.90
48666;DHT22;34452;50.796;4.994;2022-07-04T06:41:45;16.40;99.90
48666;DHT22;34452;50.796;4.994;2022-07-04T06:44:10;16.50;99.90
48666;DHT22;34452;50.796;4.994;2022-07-04T06:46:36;16.60;99.90
48666;DHT22;34452;50.796;4.994;2022-07-04T06:49:02;16.70;99.90
48666;DHT22;34452;50.796;4.994;2022-07-04T06:51:28;16.80;99.90
48666;DHT22;34452;50.796;4.994;2022-07-04T06:53:53;16.80;99.90
48666;DHT22;34452;50.796;4.994;2022-07-04T06:56:19;16.90;99.90
48666;DHT22;34452;50.796;4.994;2022-07-04T06:58:45;17.00;99.90
48666;DHT22;34452;50.796;4.994;2022-07-04T07:01:14;17.10;99.90
48666;DHT22;34452;50.796;4.994;2022-07-04T07:03:39;17.20;99.90
48666;DHT22;34452;50.796;4.994;2022-07-04T07:06:05;17.30;99.90
48666;DHT22;34452;50.796;4.994;2022-07-04T07:08:31;17.40;99.90
48666;DHT22;34452;50.796;4.994;2022-07-04T07:10:58;17.50;99.90
48666;DHT22;34452;50.796;4.994;2022-07-04T07:16:14;17.60;99.90
48666;DHT22;34452;50.796;4.994;2022-07-04T07:18:40;17.70;99.90
48666;DHT22;34452;50.796;4.994;2022-07-04T07:21:06;17.80;99.90
48666;DHT22;34452;50.796;4.994;2022-07-04T07:23:32;17.90;99.90
48666;DHT22;34452;50.796;4.994;2022-07-04T07:25:58;18.00;99.90
48666;DHT22;34452;50.796;4.994;2022-07-04T07:28:23;18.10;99.90
48666;DHT22;34452;50.796;4.994;2022-07-04T07:30:49;18.20;99.90
48666;DHT22;34452;50.796;4.994;2022-07-04T07:33:15;18.30;99.90
48666;DHT22;34452;50.796;4.994;2022-07-04T07:35:41;18.40;99.90
48666;DHT22;34452;50.796;4.994;2022-07-04T07:38:07;18.40;99.90
48666;DHT22;34452;50.796;4.994;2022-07-04T07:40:33;18.50;99.90
48666;DHT22;34452;50.796;4.994;2022-07-04T07:42:59;18.60;99.90
48666;DHT22;34452;50.796;4.994;2022-07-04T07:45:24;18.70;99.90
48666;DHT22;34452;50.796;4.994;2022-07-04T07:47:50;18.70;99.90
48666;DHT22;34452;50.796;4.994;2022-07-04T07:50:16;18.80;99.90
48666;DHT22;34452;50.796;4.994;2022-07-04T07:52:42;18.80;99.90
48666;DHT22;34452;50.796;4.994;2022-07-04T07:55:08;18.90;99.90
48666;DHT22;34452;50.796;4.994;2022-07-04T07:57:34;19.00;99.90
48666;DHT22;34452;50.796;4.994;2022-07-04T08:00:00;19.10;99.90
48666;DHT22;34452;50.796;4.994;2022-07-04T08:02:26;19.20;99.90
48666;DHT22;34452;50.796;4.994;2022-07-04T08:05:10;19.30;99.90
48666;DHT22;34452;50.796;4.994;2022-07-04T08:07:37;19.30;99.90
48666;DHT22;34452;50.796;4.994;2022-07-04T08:10:03;19.40;99.90
48666;DHT22;34452;50.796;4.994;2022-07-04T08:12:29;19.40;99.90
48666;DHT22;34452;50.796;4.994;2022-07-04T08:14:54;19.50;99.90
48666;DHT22;34452;50.796;4.994;2022-07-04T08:17:20;19.50;99.90
48666;DHT22;34452;50.796;4.994;2022-07-04T08:19:46;19.50;99.90
48666;DHT22;34452;50.796;4.994;2022-07-04T08:22:13;19.60;99.90
48666;DHT22;34452;50.796;4.994;2022-07-04T08:24:39;19.70;99.90
48666;DHT22;34452;50.796;4.994;2022-07-04T08:27:05;19.80;99.90
48666;DHT22;34452;50.796;4.994;2022-07-04T08:29:31;19.90;99.90
48666;DHT22;34452;50.796;4.994;2022-07-04T08:31:57;20.00;99.90
48666;DHT22;34452;50.796;4.994;2022-07-04T08:34:23;20.00;99.90
48666;DHT22;34452;50.796;4.994;2022-07-04T08:36:49;20.10;99.90
48666;DHT22;34452;50.796;4.994;2022-07-04T08:39:15;20.20;99.90
48666;DHT22;34452;50.796;4.994;2022-07-04T08:41:42;20.30;99.90
48666;DHT22;34452;50.796;4.994;2022-07-04T08:44:08;20.30;99.80
48666;DHT22;34452;50.796;4.994;2022-07-04T08:46:38;20.30;98.40
48666;DHT22;34452;50.796;4.994;2022-07-04T08:49:11;20.40;99.10
48666;DHT22;34452;50.796;4.994;2022-07-04T08:51:47;20.50;99.10
48666;DHT22;34452;50.796;4.994;2022-07-04T08:54:15;20.60;97.80
48666;DHT22;34452;50.796;4.994;2022-07-04T08:57:00;20.60;98.00
48666;DHT22;34452;50.796;4.994;2022-07-04T08:59:44;20.70;97.90
48666;DHT22;34452;50.796;4.994;2022-07-04T09:02:16;20.70;97.70
48666;DHT22;34452;50.796;4.994;2022-07-04T09:04:44;20.90;98.10
48666;DHT22;34452;50.796;4.994;2022-07-04T09:07:12;20.90;97.60
48666;DHT22;34452;50.796;4.994;2022-07-04T09:09:39;21.00;97.10
48666;DHT22;34452;50.796;4.994;2022-07-04T09:12:06;21.00;96.40
48666;DHT22;34452;50.796;4.994;2022-07-04T09:14:33;21.10;96.50
48666;DHT22;34452;50.796;4.994;2022-07-04T09:16:59;21.20;95.70
48666;DHT22;34452;50.796;4.994;2022-07-04T09:19:25;21.30;95.00
48666;DHT22;34452;50.796;4.994;2022-07-04T09:21:51;21.40;94.30
48666;DHT22;34452;50.796;4.994;2022-07-04T09:27:33;21.60;92.80
48666;DHT22;34452;50.796;4.994;2022-07-04T09:30:00;21.60;92.20
48666;DHT22;34452;50.796;4.994;2022-07-04T09:32:38;21.60;92.60
48666;DHT22;34452;50.796;4.994;2022-07-04T09:35:06;21.70;91.20
48666;DHT22;34452;50.796;4.994;2022-07-04T09:40:24;21.90;91.30
48666;DHT22;34452;50.796;4.994;2022-07-04T09:42:50;22.00;91.10
48666;DHT22;34452;50.796;4.994;2022-07-04T09:45:17;22.00;91.30
48666;DHT22;34452;50.796;4.994;2022-07-04T09:47:45;22.10;90.80
48666;DHT22;34452;50.796;4.994;2022-07-04T09:50:14;22.20;90.80
48666;DHT22;34452;50.796;4.994;2022-07-04T09:53:00;22.20;90.00
48666;DHT22;34452;50.796;4.994;2022-07-04T09:55:42;22.30;90.90
48666;DHT22;34452;50.796;4.994;2022-07-04T09:58:10;22.00;90.30
48666;DHT22;34452;50.796;4.994;2022-07-04T10:00:38;21.90;90.20
48666;DHT22;34452;50.796;4.994;2022-07-04T10:03:28;21.90;90.10
48666;DHT22;34452;50.796;4.994;2022-07-04T10:06:09;21.90;90.10
48666;DHT22;34452;50.796;4.994;2022-07-04T10:08:36;22.00;87.50
48666;DHT22;34452;50.796;4.994;2022-07-04T10:11:04;22.10;87.70
48666;DHT22;34452;50.796;4.994;2022-07-04T10:13:30;22.20;86.00
48666;DHT22;34452;50.796;4.994;2022-07-04T10:15:56;22.30;86.10
48666;DHT22;34452;50.796;4.994;2022-07-04T10:18:22;22.40;83.40
48666;DHT22;34452;50.796;4.994;2022-07-04T10:20:50;22.40;82.70
48666;DHT22;34452;50.796;4.994;2022-07-04T10:23:17;22.50;84.90
48666;DHT22;34452;50.796;4.994;2022-07-04T10:25:46;22.60;83.60
48666;DHT22;34452;50.796;4.994;2022-07-04T10:28:14;22.70;85.10
48666;DHT22;34452;50.796;4.994;2022-07-04T10:30:40;22.80;80.40
48666;DHT22;34452;50.796;4.994;2022-07-04T10:33:08;22.90;75.40
48666;DHT22;34452;50.796;4.994;2022-07-04T10:35:54;22.80;77.10
48666;DHT22;34452;50.796;4.994;2022-07-04T10:40:51;22.80;75.10
48666;DHT22;34452;50.796;4.994;2022-07-04T10:43:36;22.90;74.90
48666;DHT22;34452;50.796;4.994;2022-07-04T10:46:27;23.10;74.60
48666;DHT22;34452;50.796;4.994;2022-07-04T10:51:37;23.40;74.70
48666;DHT22;34452;50.796;4.994;2022-07-04T10:54:06;23.60;75.90
48666;DHT22;34452;50.796;4.994;2022-07-04T10:59:29;23.90;74.30
48666;DHT22;34452;50.796;4.994;2022-07-04T11:10:24;24.30;72.00
48666;DHT22;34452;50.796;4.994;2022-07-04T11:13:14;24.40;71.50
48666;DHT22;34452;50.796;4.994;2022-07-04T11:15:56;24.60;69.70
48666;DHT22;34452;50.796;4.994;2022-07-04T11:18:22;24.50;68.40
48666;DHT22;34452;50.796;4.994;2022-07-04T11:20:49;24.50;66.40
48666;DHT22;34452;50.796;4.994;2022-07-04T11:23:18;24.50;66.90
48666;DHT22;34452;50.796;4.994;2022-07-04T11:25:47;24.40;67.20
48666;DHT22;34452;50.796;4.994;2022-07-04T11:28:35;24.20;64.30
48666;DHT22;34452;50.796;4.994;2022-07-04T11:31:02;24.40;66.90
48666;DHT22;34452;50.796;4.994;2022-07-04T11:33:31;24.50;65.40
48666;DHT22;34452;50.796;4.994;2022-07-04T11:36:04;24.70;65.00
48666;DHT22;34452;50.796;4.994;2022-07-04T11:41:09;24.90;62.50
48666;DHT22;34452;50.796;4.994;2022-07-04T11:43:54;25.00;62.20
48666;DHT22;34452;50.796;4.994;2022-07-04T11:46:38;25.10;61.80
48666;DHT22;34452;50.796;4.994;2022-07-04T11:49:23;25.00;62.70
48666;DHT22;34452;50.796;4.994;2022-07-04T11:51:48;25.20;62.90
48666;DHT22;34452;50.796;4.994;2022-07-04T11:54:14;25.00;63.00
48666;DHT22;34452;50.796;4.994;2022-07-04T11:56:41;25.20;63.40
48666;DHT22;34452;50.796;4.994;2022-07-04T11:59:25;25.30;63.80
48666;DHT22;34452;50.796;4.994;2022-07-04T12:01:52;25.40;59.70
48666;DHT22;34452;50.796;4.994;2022-07-04T12:04:19;25.50;59.60
48666;DHT22;34452;50.796;4.994;2022-07-04T12:06:48;25.10;58.70
48666;DHT22;34452;50.796;4.994;2022-07-04T12:09:15;25.20;59.10
48666;DHT22;34452;50.796;4.994;2022-07-04T12:12:00;25.40;58.60
48666;DHT22;34452;50.796;4.994;2022-07-04T12:14:27;25.60;58.80
48666;DHT22;34452;50.796;4.994;2022-07-04T12:19:58;25.50;57.80
48666;DHT22;34452;50.796;4.994;2022-07-04T12:25:26;25.90;57.80
48666;DHT22;34452;50.796;4.994;2022-07-04T12:30:37;26.20;56.60
48666;DHT22;34452;50.796;4.994;2022-07-04T12:33:05;26.40;58.40
48666;DHT22;34452;50.796;4.994;2022-07-04T12:35:45;26.20;56.30
48666;DHT22;34452;50.796;4.994;2022-07-04T12:41:07;26.70;57.00
48666;DHT22;34452;50.796;4.994;2022-07-04T12:43:54;26.90;54.00
48666;DHT22;34452;50.796;4.994;2022-07-04T12:46:36;27.10;56.20
48666;DHT22;34452;50.796;4.994;2022-07-04T12:49:04;26.80;55.40
48666;DHT22;34452;50.796;4.994;2022-07-04T12:51:31;26.50;55.30
48666;DHT22;34452;50.796;4.994;2022-07-04T12:53:59;26.60;56.00
48666;DHT22;34452;50.796;4.994;2022-07-04T12:56:44;26.80;56.50
48666;DHT22;34452;50.796;4.994;2022-07-04T12:59:13;27.10;55.80
48666;DHT22;34452;50.796;4.994;2022-07-04T13:01:41;27.00;54.80
48666;DHT22;34452;50.796;4.994;2022-07-04T13:04:08;26.50;54.80
48666;DHT22;34452;50.796;4.994;2022-07-04T13:06:35;26.20;57.00
48666;DHT22;34452;50.796;4.994;2022-07-04T13:09:02;26.30;57.00
48666;DHT22;34452;50.796;4.994;2022-07-04T13:11:28;26.60;56.80
48666;DHT22;34452;50.796;4.994;2022-07-04T13:14:12;26.60;55.80
48666;DHT22;34452;50.796;4.994;2022-07-04T13:16:38;26.20;54.30
48666;DHT22;34452;50.796;4.994;2022-07-04T13:19:03;26.30;55.90
48666;DHT22;34452;50.796;4.994;2022-07-04T13:21:29;26.40;56.70
48666;DHT22;34452;50.796;4.994;2022-07-04T13:23:55;26.00;54.40
48666;DHT22;34452;50.796;4.994;2022-07-04T13:26:21;25.90;57.40
48666;DHT22;34452;50.796;4.994;2022-07-04T13:28:47;26.20;57.10
48666;DHT22;34452;50.796;4.994;2022-07-04T13:31:13;26.50;56.20
48666;DHT22;34452;50.796;4.994;2022-07-04T13:33:39;26.50;53.90
48666;DHT22;34452;50.796;4.994;2022-07-04T13:36:06;26.00;54.40
48666;DHT22;34452;50.796;4.994;2022-07-04T13:38:32;25.90;56.50
48666;DHT22;34452;50.796;4.994;2022-07-04T13:40:58;26.20;55.70
48666;DHT22;34452;50.796;4.994;2022-07-04T13:43:24;26.00;55.40
48666;DHT22;34452;50.796;4.994;2022-07-04T13:45:50;25.80;54.00
48666;DHT22;34452;50.796;4.994;2022-07-04T13:48:16;25.70;55.70
48666;DHT22;34452;50.796;4.994;2022-07-04T13:50:42;26.10;55.80
48666;DHT22;34452;50.796;4.994;2022-07-04T13:53:08;26.40;53.70
48666;DHT22;34452;50.796;4.994;2022-07-04T13:55:34;26.70;54.40
48666;DHT22;34452;50.796;4.994;2022-07-04T13:58:03;26.70;54.10
48666;DHT22;34452;50.796;4.994;2022-07-04T14:00:29;26.30;53.20
48666;DHT22;34452;50.796;4.994;2022-07-04T14:02:54;26.10;54.60
48666;DHT22;34452;50.796;4.994;2022-07-04T14:05:20;25.70;55.70
48666;DHT22;34452;50.796;4.994;2022-07-04T14:07:46;25.40;55.50
48666;DHT22;34452;50.796;4.994;2022-07-04T14:10:12;25.10;56.80
48666;DHT22;34452;50.796;4.994;2022-07-04T14:12:38;24.80;57.10
48666;DHT22;34452;50.796;4.994;2022-07-04T14:15:05;24.90;59.30
48666;DHT22;34452;50.796;4.994;2022-07-04T14:17:31;24.90;59.60
48666;DHT22;34452;50.796;4.994;2022-07-04T14:19:57;24.80;58.50
48666;DHT22;34452;50.796;4.994;2022-07-04T14:22:23;24.70;60.80
48666;DHT22;34452;50.796;4.994;2022-07-04T14:24:48;24.80;60.10
48666;DHT22;34452;50.796;4.994;2022-07-04T14:27:14;25.30;58.30
48666;DHT22;34452;50.796;4.994;2022-07-04T14:29:40;25.90;57.80
48666;DHT22;34452;50.796;4.994;2022-07-04T14:32:07;26.50;55.00
48666;DHT22;34452;50.796;4.994;2022-07-04T14:34:33;26.70;54.20
48666;DHT22;34452;50.796;4.994;2022-07-04T14:37:00;26.50;54.90
48666;DHT22;34452;50.796;4.994;2022-07-04T14:39:26;26.10;55.80
48666;DHT22;34452;50.796;4.994;2022-07-04T14:41:53;25.70;54.70
48666;DHT22;34452;50.796;4.994;2022-07-04T14:44:19;25.60;54.40
48666;DHT22;34452;50.796;4.994;2022-07-04T14:46:44;25.50;54.70
48666;DHT22;34452;50.796;4.994;2022-07-04T14:49:10;26.10;53.50
48666;DHT22;34452;50.796;4.994;2022-07-04T14:51:36;26.70;53.80
48666;DHT22;34452;50.796;4.994;2022-07-04T14:54:06;27.30;53.40
48666;DHT22;34452;50.796;4.994;2022-07-04T14:56:32;27.90;55.40
48666;DHT22;34452;50.796;4.994;2022-07-04T14:58:58;28.10;51.00
48666;DHT22;34452;50.796;4.994;2022-07-04T15:01:24;27.70;49.60
48666;DHT22;34452;50.796;4.994;2022-07-04T15:03:49;27.20;50.00
48666;DHT22;34452;50.796;4.994;2022-07-04T15:06:15;27.60;50.50
48666;DHT22;34452;50.796;4.994;2022-07-04T15:08:41;27.20;50.90
48666;DHT22;34452;50.796;4.994;2022-07-04T15:11:06;26.80;49.30
48666;DHT22;34452;50.796;4.994;2022-07-04T15:13:32;27.10;50.90
48666;DHT22;34452;50.796;4.994;2022-07-04T15:15:58;28.00;49.80
48666;DHT22;34452;50.796;4.994;2022-07-04T15:18:23;29.00;47.70
48666;DHT22;34452;50.796;4.994;2022-07-04T15:20:49;29.70;47.30
48666;DHT22;34452;50.796;4.994;2022-07-04T15:23:33;30.30;45.60
48666;DHT22;34452;50.796;4.994;2022-07-04T15:26:17;31.00;46.80
48666;DHT22;34452;50.796;4.994;2022-07-04T15:28:43;31.40;45.70
48666;DHT22;34452;50.796;4.994;2022-07-04T15:31:09;31.60;46.30
48666;DHT22;34452;50.796;4.994;2022-07-04T15:33:37;32.10;44.10
48666;DHT22;34452;50.796;4.994;2022-07-04T15:36:04;32.60;42.30
48666;DHT22;34452;50.796;4.994;2022-07-04T15:38:30;33.00;39.50
48666;DHT22;34452;50.796;4.994;2022-07-04T15:40:56;33.30;39.60
48666;DHT22;34452;50.796;4.994;2022-07-04T15:43:22;33.70;38.10
48666;DHT22;34452;50.796;4.994;2022-07-04T15:45:47;34.00;37.00
48666;DHT22;34452;50.796;4.994;2022-07-04T15:48:14;34.30;38.60
48666;DHT22;34452;50.796;4.994;2022-07-04T15:50:39;34.70;36.50
48666;DHT22;34452;50.796;4.994;2022-07-04T15:53:05;34.70;35.50
48666;DHT22;34452;50.796;4.994;2022-07-04T15:55:31;33.50;37.30
48666;DHT22;34452;50.796;4.994;2022-07-04T15:57:57;32.30;37.00
48666;DHT22;34452;50.796;4.994;2022-07-04T16:00:23;32.60;37.60
48666;DHT22;34452;50.796;4.994;2022-07-04T16:02:49;33.10;38.20
48666;DHT22;34452;50.796;4.994;2022-07-04T16:05:14;33.40;35.20
48666;DHT22;34452;50.796;4.994;2022-07-04T16:07:40;33.80;36.70
48666;DHT22;34452;50.796;4.994;2022-07-04T16:10:06;34.30;36.30
48666;DHT22;34452;50.796;4.994;2022-07-04T16:12:32;34.30;34.80